sensor_id;sensor_type;location;lat;lon;timestamp;P1;durP1;ratioP1;P2;durP2;ratioP2
22160;SDS011;49035;48.812;11.762;2023-07-29T00:01:22;6.82;;;4.93;;
22160;SDS011;49035;48.812;11.762;2023-07-29T00:03:48;8.98;;;5.18;;
22160;SDS011;49035;48.812;11.762;2023-07-29T00:06:13;8.85;;;5.25;;
22160;SDS011;49035;48.812;11.762;2023-07-29T00:08:39;8.55;;;5.95;;
22160;SDS011;49035;48.812;11.762;2023-07-29T00:11:04;8.05;;;5.30;;
22160;SDS011;49035;48.812;11.762;2023-07-29T00:13:30;7.70;;;5.35;;
22160;SDS011;49035;48.812;11.762;2023-07-29T00:15:56;8.63;;;5.82;;
22160;SDS011;49035;48.812;11.762;2023-07-29T00:18:22;8.63;;;5.32;;
22160;SDS011;49035;48.812;11.762;2023-07-29T00:20:48;6.90;;;5.13;;
22160;SDS011;49035;48.812;11.762;2023-07-29T00:23:14;7.03;;;4.80;;
22160;SDS011;49035;48.812;11.762;2023-07-29T00:25:39;6.72;;;4.85;;
22160;SDS011;49035;48.812;11.762;2023-07-29T00:28:05;5.32;;;4.68;;
22160;SDS011;49035;48.812;11.762;2023-07-29T00:30:31;6.93;;;4.53;;
22160;SDS011;49035;48.812;11.762;2023-07-29T00:32:56;7.15;;;5.05;;
22160;SDS011;49035;48.812;11.762;2023-07-29T00:35:22;8.10;;;5.25;;
22160;SDS011;49035;48.812;11.762;2023-07-29T00:37:47;8.15;;;5.10;;
22160;SDS011;49035;48.812;11.762;2023-07-29T00:40:19;7.90;;;4.88;;
22160;SDS011;49035;48.812;11.762;2023-07-29T00:42:45;7.00;;;5.03;;
22160;SDS011;49035;48.812;11.762;2023-07-29T00:45:11;5.53;;;4.47;;
22160;SDS011;49035;48.812;11.762;2023-07-29T00:47:37;8.80;;;5.15;;
22160;SDS011;49035;48.812;11.762;2023-07-29T00:50:04;8.02;;;4.75;;
22160;SDS011;49035;48.812;11.762;2023-07-29T00:52:34;5.88;;;4.63;;
22160;SDS011;49035;48.812;11.762;2023-07-29T00:54:59;7.28;;;5.10;;
22160;SDS011;49035;48.812;11.762;2023-07-29T00:57:25;7.93;;;4.97;;
22160;SDS011;49035;48.812;11.762;2023-07-29T00:59:53;5.88;;;4.65;;
22160;SDS011;49035;48.812;11.762;2023-07-29T01:02:19;5.30;;;4.47;;
22160;SDS011;49035;48.812;11.762;2023-07-29T01:04:45;8.95;;;5.15;;
22160;SDS011;49035;48.812;11.762;2023-07-29T01:09:41;7.55;;;4.50;;
22160;SDS011;49035;48.812;11.762;2023-07-29T01:17:52;7.47;;;5.10;;
22160;SDS011;49035;48.812;11.762;2023-07-29T01:20:21;6.15;;;4.95;;
22160;SDS011;49035;48.812;11.762;2023-07-29T01:22:50;7.72;;;5.30;;
22160;SDS011;49035;48.812;11.762;2023-07-29T01:25:16;7.07;;;4.82;;
22160;SDS011;49035;48.812;11.762;2023-07-29T01:27:42;7.93;;;4.80;;
22160;SDS011;49035;48.812;11.762;2023-07-29T01:30:10;10.95;;;5.03;;
22160;SDS011;49035;48.812;11.762;2023-07-29T01:35:24;6.75;;;4.72;;
22160;SDS011;49035;48.812;11.762;2023-07-29T01:37:59;3.42;;;2.97;;
22160;SDS011;49035;48.812;11.762;2023-07-29T01:40:30;4.18;;;3.50;;
22160;SDS011;49035;48.812;11.762;2023-07-29T01:42:56;5.15;;;3.60;;
22160;SDS011;49035;48.812;11.762;2023-07-29T01:45:25;5.40;;;3.83;;
22160;SDS011;49035;48.812;11.762;2023-07-29T01:47:50;6.20;;;4.15;;
22160;SDS011;49035;48.812;11.762;2023-07-29T01:50:16;4.95;;;4.10;;
22160;SDS011;49035;48.812;11.762;2023-07-29T01:52:42;10.63;;;5.35;;
22160;SDS011;49035;48.812;11.762;2023-07-29T01:55:08;5.20;;;4.70;;
22160;SDS011;49035;48.812;11.762;2023-07-29T01:57:33;8.98;;;4.43;;
22160;SDS011;49035;48.812;11.762;2023-07-29T01:59:59;6.07;;;4.95;;
22160;SDS011;49035;48.812;11.762;2023-07-29T02:02:25;7.85;;;5.10;;
22160;SDS011;49035;48.812;11.762;2023-07-29T02:04:50;34.65;;;5.32;;
22160;SDS011;49035;48.812;11.762;2023-07-29T02:07:18;4.03;;;3.63;;
22160;SDS011;49035;48.812;11.762;2023-07-29T02:09:44;222.02;;;10.55;;
22160;SDS011;49035;48.812;11.762;2023-07-29T02:12:10;3.40;;;2.97;;
22160;SDS011;49035;48.812;11.762;2023-07-29T02:14:35;5.35;;;4.05;;
22160;SDS011;49035;48.812;11.762;2023-07-29T02:17:01;4.75;;;3.60;;
22160;SDS011;49035;48.812;11.762;2023-07-29T02:19:26;8.32;;;4.57;;
22160;SDS011;49035;48.812;11.762;2023-07-29T02:21:52;8.82;;;6.00;;
22160;SDS011;49035;48.812;11.762;2023-07-29T02:24:18;11.52;;;6.18;;
22160;SDS011;49035;48.812;11.762;2023-07-29T02:26:43;9.48;;;6.15;;
22160;SDS011;49035;48.812;11.762;2023-07-29T02:29:09;6.85;;;5.40;;
22160;SDS011;49035;48.812;11.762;2023-07-29T02:31:34;10.02;;;6.10;;
22160;SDS011;49035;48.812;11.762;2023-07-29T02:34:02;9.55;;;6.30;;
22160;SDS011;49035;48.812;11.762;2023-07-29T02:36:28;9.85;;;6.65;;
22160;SDS011;49035;48.812;11.762;2023-07-29T02:38:53;8.60;;;5.72;;
22160;SDS011;49035;48.812;11.762;2023-07-29T02:41:19;9.88;;;5.68;;
22160;SDS011;49035;48.812;11.762;2023-07-29T02:43:48;4.40;;;3.83;;
22160;SDS011;49035;48.812;11.762;2023-07-29T02:46:14;8.68;;;5.15;;
22160;SDS011;49035;48.812;11.762;2023-07-29T02:48:39;7.55;;;5.68;;
22160;SDS011;49035;48.812;11.762;2023-07-29T02:51:05;8.18;;;4.38;;
22160;SDS011;49035;48.812;11.762;2023-07-29T02:53:31;4.60;;;3.72;;
22160;SDS011;49035;48.812;11.762;2023-07-29T02:55:57;5.25;;;4.55;;
22160;SDS011;49035;48.812;11.762;2023-07-29T02:58:22;6.85;;;5.47;;
22160;SDS011;49035;48.812;11.762;2023-07-29T03:00:48;4.00;;;3.60;;
22160;SDS011;49035;48.812;11.762;2023-07-29T03:03:13;6.95;;;4.72;;
22160;SDS011;49035;48.812;11.762;2023-07-29T03:05:39;7.18;;;5.28;;
22160;SDS011;49035;48.812;11.762;2023-07-29T03:08:05;14.23;;;4.63;;
22160;SDS011;49035;48.812;11.762;2023-07-29T03:10:30;5.82;;;4.93;;
22160;SDS011;49035;48.812;11.762;2023-07-29T03:12:56;11.43;;;4.18;;
22160;SDS011;49035;48.812;11.762;2023-07-29T03:15:25;22.42;;;4.50;;
22160;SDS011;49035;48.812;11.762;2023-07-29T03:17:51;3.40;;;3.10;;
22160;SDS011;49035;48.812;11.762;2023-07-29T03:20:17;7.60;;;4.28;;
22160;SDS011;49035;48.812;11.762;2023-07-29T03:22:43;6.25;;;4.50;;
22160;SDS011;49035;48.812;11.762;2023-07-29T03:25:09;7.80;;;4.68;;
22160;SDS011;49035;48.812;11.762;2023-07-29T03:27:35;9.55;;;5.18;;
22160;SDS011;49035;48.812;11.762;2023-07-29T03:30:05;7.40;;;4.35;;
22160;SDS011;49035;48.812;11.762;2023-07-29T03:32:31;5.00;;;4.15;;
22160;SDS011;49035;48.812;11.762;2023-07-29T03:34:56;4.03;;;3.63;;
22160;SDS011;49035;48.812;11.762;2023-07-29T03:37:22;4.80;;;4.28;;
22160;SDS011;49035;48.812;11.762;2023-07-29T03:39:47;31.27;;;5.75;;
22160;SDS011;49035;48.812;11.762;2023-07-29T03:42:13;5.10;;;3.90;;
22160;SDS011;49035;48.812;11.762;2023-07-29T03:44:38;7.70;;;5.30;;
22160;SDS011;49035;48.812;11.762;2023-07-29T03:47:05;6.93;;;5.05;;
22160;SDS011;49035;48.812;11.762;2023-07-29T03:49:31;6.93;;;3.90;;
22160;SDS011;49035;48.812;11.762;2023-07-29T03:51:57;5.43;;;4.40;;
22160;SDS011;49035;48.812;11.762;2023-07-29T03:54:22;7.18;;;4.88;;
22160;SDS011;49035;48.812;11.762;2023-07-29T03:56:48;4.07;;;3.22;;
22160;SDS011;49035;48.812;11.762;2023-07-29T03:59:13;5.93;;;4.03;;
22160;SDS011;49035;48.812;11.762;2023-07-29T04:01:39;4.70;;;3.83;;
22160;SDS011;49035;48.812;11.762;2023-07-29T04:04:05;4.88;;;4.18;;
22160;SDS011;49035;48.812;11.762;2023-07-29T04:06:30;6.60;;;4.75;;
22160;SDS011;49035;48.812;11.762;2023-07-29T04:08:57;13.50;;;5.72;;
22160;SDS011;49035;48.812;11.762;2023-07-29T04:11:23;7.35;;;5.28;;
22160;SDS011;49035;48.812;11.762;2023-07-29T04:13:49;9.50;;;6.47;;
22160;SDS011;49035;48.812;11.762;2023-07-29T04:16:14;7.93;;;5.47;;
22160;SDS011;49035;48.812;11.762;2023-07-29T04:18:41;9.50;;;5.65;;
22160;SDS011;49035;48.812;11.762;2023-07-29T04:21:07;7.25;;;5.13;;
22160;SDS011;49035;48.812;11.762;2023-07-29T04:23:32;9.48;;;6.72;;
22160;SDS011;49035;48.812;11.762;2023-07-29T04:25:58;7.20;;;5.88;;
22160;SDS011;49035;48.812;11.762;2023-07-29T04:28:24;7.00;;;5.50;;
22160;SDS011;49035;48.812;11.762;2023-07-29T04:30:49;8.48;;;5.60;;
22160;SDS011;49035;48.812;11.762;2023-07-29T04:33:15;8.93;;;6.97;;
22160;SDS011;49035;48.812;11.762;2023-07-29T04:35:40;8.57;;;6.40;;
22160;SDS011;49035;48.812;11.762;2023-07-29T04:38:06;9.38;;;6.40;;
22160;SDS011;49035;48.812;11.762;2023-07-29T04:40:34;9.63;;;6.70;;
22160;SDS011;49035;48.812;11.762;2023-07-29T04:43:00;7.18;;;5.63;;
22160;SDS011;49035;48.812;11.762;2023-07-29T04:45:29;8.85;;;5.05;;
22160;SDS011;49035;48.812;11.762;2023-07-29T04:47:55;7.32;;;5.32;;
22160;SDS011;49035;48.812;11.762;2023-07-29T04:50:21;8.45;;;5.25;;
22160;SDS011;49035;48.812;11.762;2023-07-29T04:52:47;8.20;;;5.10;;
22160;SDS011;49035;48.812;11.762;2023-07-29T04:55:12;6.32;;;5.20;;
22160;SDS011;49035;48.812;11.762;2023-07-29T04:57:38;9.90;;;5.82;;
22160;SDS011;49035;48.812;11.762;2023-07-29T05:00:03;10.20;;;5.70;;
22160;SDS011;49035;48.812;11.762;2023-07-29T05:02:29;6.63;;;5.45;;
22160;SDS011;49035;48.812;11.762;2023-07-29T05:04:55;6.88;;;4.97;;
22160;SDS011;49035;48.812;11.762;2023-07-29T05:07:20;7.38;;;5.53;;
22160;SDS011;49035;48.812;11.762;2023-07-29T05:09:47;10.07;;;5.90;;
22160;SDS011;49035;48.812;11.762;2023-07-29T05:12:12;10.27;;;6.05;;
22160;SDS011;49035;48.812;11.762;2023-07-29T05:14:38;6.40;;;5.45;;
22160;SDS011;49035;48.812;11.762;2023-07-29T05:17:04;7.85;;;5.78;;
22160;SDS011;49035;48.812;11.762;2023-07-29T05:19:30;9.68;;;7.25;;
22160;SDS011;49035;48.812;11.762;2023-07-29T05:21:55;7.93;;;5.53;;
22160;SDS011;49035;48.812;11.762;2023-07-29T05:24:22;7.93;;;6.05;;
22160;SDS011;49035;48.812;11.762;2023-07-29T05:26:48;7.35;;;4.50;;
22160;SDS011;49035;48.812;11.762;2023-07-29T05:29:14;5.55;;;3.75;;
22160;SDS011;49035;48.812;11.762;2023-07-29T05:31:39;4.97;;;3.95;;
22160;SDS011;49035;48.812;11.762;2023-07-29T05:34:05;4.65;;;3.72;;
22160;SDS011;49035;48.812;11.762;2023-07-29T05:36:31;3.92;;;2.90;;
22160;SDS011;49035;48.812;11.762;2023-07-29T05:38:56;3.25;;;2.45;;
22160;SDS011;49035;48.812;11.762;2023-07-29T05:41:22;4.53;;;2.50;;
22160;SDS011;49035;48.812;11.762;2023-07-29T05:43:48;5.15;;;2.50;;
22160;SDS011;49035;48.812;11.762;2023-07-29T05:46:13;2.72;;;2.28;;
22160;SDS011;49035;48.812;11.762;2023-07-29T05:48:39;3.35;;;2.40;;
22160;SDS011;49035;48.812;11.762;2023-07-29T05:51:04;3.92;;;2.85;;
22160;SDS011;49035;48.812;11.762;2023-07-29T05:53:30;3.40;;;2.65;;
22160;SDS011;49035;48.812;11.762;2023-07-29T05:55:56;2.90;;;2.60;;
22160;SDS011;49035;48.812;11.762;2023-07-29T05:58:22;4.22;;;2.70;;
22160;SDS011;49035;48.812;11.762;2023-07-29T06:00:47;2.75;;;2.38;;
22160;SDS011;49035;48.812;11.762;2023-07-29T06:03:13;7.72;;;3.10;;
22160;SDS011;49035;48.812;11.762;2023-07-29T06:05:39;3.90;;;2.70;;
22160;SDS011;49035;48.812;11.762;2023-07-29T06:08:04;4.80;;;3.00;;
22160;SDS011;49035;48.812;11.762;2023-07-29T06:10:30;3.42;;;2.55;;
22160;SDS011;49035;48.812;11.762;2023-07-29T06:12:56;2.92;;;2.70;;
22160;SDS011;49035;48.812;11.762;2023-07-29T06:15:21;7.32;;;3.10;;
22160;SDS011;49035;48.812;11.762;2023-07-29T06:17:48;2.70;;;2.38;;
22160;SDS011;49035;48.812;11.762;2023-07-29T06:20:13;5.45;;;2.70;;
22160;SDS011;49035;48.812;11.762;2023-07-29T06:22:39;3.60;;;2.55;;
22160;SDS011;49035;48.812;11.762;2023-07-29T06:25:06;3.50;;;2.30;;
22160;SDS011;49035;48.812;11.762;2023-07-29T06:27:31;7.22;;;3.10;;
22160;SDS011;49035;48.812;11.762;2023-07-29T06:29:57;3.58;;;2.92;;
22160;SDS011;49035;48.812;11.762;2023-07-29T06:32:23;2.90;;;2.60;;
22160;SDS011;49035;48.812;11.762;2023-07-29T06:34:48;6.53;;;2.13;;
22160;SDS011;49035;48.812;11.762;2023-07-29T06:37:14;4.18;;;2.33;;
22160;SDS011;49035;48.812;11.762;2023-07-29T06:39:39;2.63;;;2.05;;
22160;SDS011;49035;48.812;11.762;2023-07-29T06:42:05;5.28;;;2.80;;
22160;SDS011;49035;48.812;11.762;2023-07-29T06:44:31;4.13;;;2.40;;
22160;SDS011;49035;48.812;11.762;2023-07-29T06:46:57;4.70;;;2.92;;
22160;SDS011;49035;48.812;11.762;2023-07-29T06:49:23;4.45;;;2.80;;
22160;SDS011;49035;48.812;11.762;2023-07-29T06:51:48;2.65;;;1.92;;
22160;SDS011;49035;48.812;11.762;2023-07-29T06:54:15;3.22;;;2.30;;
22160;SDS011;49035;48.812;11.762;2023-07-29T06:56:41;3.22;;;2.47;;
22160;SDS011;49035;48.812;11.762;2023-07-29T06:59:07;4.05;;;2.25;;
22160;SDS011;49035;48.812;11.762;2023-07-29T07:01:33;5.75;;;2.60;;
22160;SDS011;49035;48.812;11.762;2023-07-29T07:03:59;3.67;;;2.40;;
22160;SDS011;49035;48.812;11.762;2023-07-29T07:06:24;4.60;;;2.60;;
22160;SDS011;49035;48.812;11.762;2023-07-29T07:08:50;2.33;;;2.13;;
22160;SDS011;49035;48.812;11.762;2023-07-29T07:11:16;2.42;;;2.20;;
22160;SDS011;49035;48.812;11.762;2023-07-29T07:13:43;2.63;;;1.83;;
22160;SDS011;49035;48.812;11.762;2023-07-29T07:16:08;3.17;;;2.88;;
22160;SDS011;49035;48.812;11.762;2023-07-29T07:18:34;4.10;;;2.20;;
22160;SDS011;49035;48.812;11.762;2023-07-29T07:20:59;2.70;;;2.40;;
22160;SDS011;49035;48.812;11.762;2023-07-29T07:23:25;2.90;;;2.28;;
22160;SDS011;49035;48.812;11.762;2023-07-29T07:25:50;4.72;;;2.63;;
22160;SDS011;49035;48.812;11.762;2023-07-29T07:28:16;9.25;;;2.95;;
22160;SDS011;49035;48.812;11.762;2023-07-29T07:30:42;3.88;;;2.60;;
22160;SDS011;49035;48.812;11.762;2023-07-29T07:33:07;5.18;;;2.40;;
22160;SDS011;49035;48.812;11.762;2023-07-29T07:35:33;3.42;;;2.33;;
22160;SDS011;49035;48.812;11.762;2023-07-29T07:37:58;2.78;;;2.22;;
22160;SDS011;49035;48.812;11.762;2023-07-29T07:40:26;6.65;;;3.00;;
22160;SDS011;49035;48.812;11.762;2023-07-29T07:42:52;8.45;;;2.88;;
22160;SDS011;49035;48.812;11.762;2023-07-29T07:45:18;3.80;;;2.72;;
22160;SDS011;49035;48.812;11.762;2023-07-29T07:47:43;2.60;;;2.35;;
22160;SDS011;49035;48.812;11.762;2023-07-29T07:50:09;13.32;;;2.50;;
22160;SDS011;49035;48.812;11.762;2023-07-29T07:52:35;7.75;;;3.33;;
22160;SDS011;49035;48.812;11.762;2023-07-29T07:55:00;7.15;;;2.78;;
22160;SDS011;49035;48.812;11.762;2023-07-29T07:57:26;3.88;;;2.83;;
22160;SDS011;49035;48.812;11.762;2023-07-29T07:59:51;3.85;;;2.95;;
22160;SDS011;49035;48.812;11.762;2023-07-29T08:02:17;4.05;;;3.53;;
22160;SDS011;49035;48.812;11.762;2023-07-29T08:04:43;5.70;;;3.60;;
22160;SDS011;49035;48.812;11.762;2023-07-29T08:07:09;4.18;;;3.78;;
22160;SDS011;49035;48.812;11.762;2023-07-29T08:09:34;6.35;;;4.13;;
22160;SDS011;49035;48.812;11.762;2023-07-29T08:12:00;6.00;;;4.60;;
22160;SDS011;49035;48.812;11.762;2023-07-29T08:14:25;8.68;;;4.38;;
22160;SDS011;49035;48.812;11.762;2023-07-29T08:16:52;7.88;;;4.03;;
22160;SDS011;49035;48.812;11.762;2023-07-29T08:19:17;10.98;;;4.38;;
22160;SDS011;49035;48.812;11.762;2023-07-29T08:21:43;6.03;;;4.65;;
22160;SDS011;49035;48.812;11.762;2023-07-29T08:24:08;5.32;;;3.80;;
22160;SDS011;49035;48.812;11.762;2023-07-29T08:26:34;12.88;;;4.60;;
22160;SDS011;49035;48.812;11.762;2023-07-29T08:29:00;8.85;;;4.53;;
22160;SDS011;49035;48.812;11.762;2023-07-29T08:31:25;9.80;;;5.30;;
22160;SDS011;49035;48.812;11.762;2023-07-29T08:33:51;10.57;;;4.68;;
22160;SDS011;49035;48.812;11.762;2023-07-29T08:36:16;5.47;;;4.68;;
22160;SDS011;49035;48.812;11.762;2023-07-29T08:38:42;9.65;;;5.47;;
22160;SDS011;49035;48.812;11.762;2023-07-29T08:41:29;7.55;;;5.05;;
22160;SDS011;49035;48.812;11.762;2023-07-29T08:46:43;6.20;;;4.88;;
22160;SDS011;49035;48.812;11.762;2023-07-29T08:49:11;7.00;;;4.60;;
22160;SDS011;49035;48.812;11.762;2023-07-29T08:51:38;5.00;;;3.80;;
22160;SDS011;49035;48.812;11.762;2023-07-29T08:54:06;7.28;;;3.50;;
22160;SDS011;49035;48.812;11.762;2023-07-29T08:56:32;4.57;;;2.90;;
22160;SDS011;49035;48.812;11.762;2023-07-29T08:58:58;4.60;;;3.13;;
22160;SDS011;49035;48.812;11.762;2023-07-29T09:01:27;4.07;;;2.70;;
22160;SDS011;49035;48.812;11.762;2023-07-29T09:03:53;2.45;;;2.10;;
22160;SDS011;49035;48.812;11.762;2023-07-29T09:06:19;2.15;;;1.90;;
22160;SDS011;49035;48.812;11.762;2023-07-29T09:08:46;2.20;;;1.63;;
22160;SDS011;49035;48.812;11.762;2023-07-29T09:11:15;1.67;;;1.50;;
22160;SDS011;49035;48.812;11.762;2023-07-29T09:13:42;1.88;;;1.65;;
22160;SDS011;49035;48.812;11.762;2023-07-29T09:16:08;3.22;;;1.73;;
22160;SDS011;49035;48.812;11.762;2023-07-29T09:18:34;2.13;;;1.63;;
22160;SDS011;49035;48.812;11.762;2023-07-29T09:21:00;3.60;;;1.85;;
22160;SDS011;49035;48.812;11.762;2023-07-29T09:23:26;2.45;;;2.25;;
22160;SDS011;49035;48.812;11.762;2023-07-29T09:26:00;2.45;;;1.70;;
22160;SDS011;49035;48.812;11.762;2023-07-29T09:28:26;2.42;;;2.20;;
22160;SDS011;49035;48.812;11.762;2023-07-29T09:31:03;2.83;;;2.35;;
22160;SDS011;49035;48.812;11.762;2023-07-29T09:33:35;3.08;;;2.60;;
22160;SDS011;49035;48.812;11.762;2023-07-29T09:36:02;4.07;;;2.30;;
22160;SDS011;49035;48.812;11.762;2023-07-29T09:38:34;4.00;;;2.10;;
22160;SDS011;49035;48.812;11.762;2023-07-29T09:41:01;2.55;;;2.15;;
22160;SDS011;49035;48.812;11.762;2023-07-29T09:43:33;3.65;;;2.33;;
22160;SDS011;49035;48.812;11.762;2023-07-29T09:46:03;4.32;;;2.15;;
22160;SDS011;49035;48.812;11.762;2023-07-29T09:48:33;2.97;;;2.28;;
22160;SDS011;49035;48.812;11.762;2023-07-29T09:50:59;3.03;;;2.28;;
22160;SDS011;49035;48.812;11.762;2023-07-29T09:53:38;5.97;;;2.67;;
22160;SDS011;49035;48.812;11.762;2023-07-29T09:56:05;4.07;;;2.40;;
22160;SDS011;49035;48.812;11.762;2023-07-29T09:58:31;4.30;;;2.70;;
22160;SDS011;49035;48.812;11.762;2023-07-29T10:00:58;3.40;;;3.03;;
22160;SDS011;49035;48.812;11.762;2023-07-29T10:03:24;4.55;;;3.00;;
22160;SDS011;49035;48.812;11.762;2023-07-29T10:05:50;4.38;;;3.20;;
22160;SDS011;49035;48.812;11.762;2023-07-29T10:08:16;4.30;;;3.30;;
22160;SDS011;49035;48.812;11.762;2023-07-29T10:10:44;6.40;;;3.80;;
22160;SDS011;49035;48.812;11.762;2023-07-29T10:13:10;4.57;;;3.20;;
22160;SDS011;49035;48.812;11.762;2023-07-29T10:15:36;4.50;;;3.08;;
22160;SDS011;49035;48.812;11.762;2023-07-29T10:18:02;12.77;;;3.03;;
22160;SDS011;49035;48.812;11.762;2023-07-29T10:20:30;4.03;;;2.78;;
22160;SDS011;49035;48.812;11.762;2023-07-29T10:22:59;4.53;;;2.83;;
22160;SDS011;49035;48.812;11.762;2023-07-29T10:25:25;4.57;;;2.80;;
22160;SDS011;49035;48.812;11.762;2023-07-29T10:28:05;3.20;;;2.80;;
22160;SDS011;49035;48.812;11.762;2023-07-29T10:30:32;4.30;;;2.50;;
22160;SDS011;49035;48.812;11.762;2023-07-29T10:32:59;3.35;;;2.35;;
22160;SDS011;49035;48.812;11.762;2023-07-29T10:35:27;3.33;;;2.70;;
22160;SDS011;49035;48.812;11.762;2023-07-29T10:37:53;3.15;;;2.28;;
22160;SDS011;49035;48.812;11.762;2023-07-29T10:40:19;3.38;;;2.25;;
22160;SDS011;49035;48.812;11.762;2023-07-29T10:45:38;2.67;;;1.80;;
22160;SDS011;49035;48.812;11.762;2023-07-29T10:48:39;3.30;;;1.85;;
22160;SDS011;49035;48.812;11.762;2023-07-29T10:54:01;3.08;;;2.05;;
22160;SDS011;49035;48.812;11.762;2023-07-29T10:56:40;3.42;;;2.33;;
22160;SDS011;49035;48.812;11.762;2023-07-29T11:01:54;2.25;;;1.83;;
22160;SDS011;49035;48.812;11.762;2023-07-29T11:04:29;3.05;;;2.35;;
22160;SDS011;49035;48.812;11.762;2023-07-29T11:07:20;3.60;;;1.83;;
22160;SDS011;49035;48.812;11.762;2023-07-29T11:15:03;1.80;;;1.70;;
22160;SDS011;49035;48.812;11.762;2023-07-29T11:17:30;1.90;;;1.65;;
22160;SDS011;49035;48.812;11.762;2023-07-29T11:20:02;2.72;;;2.10;;
22160;SDS011;49035;48.812;11.762;2023-07-29T11:22:29;2.38;;;1.70;;
22160;SDS011;49035;48.812;11.762;2023-07-29T11:24:55;4.53;;;1.90;;
22160;SDS011;49035;48.812;11.762;2023-07-29T11:27:21;1.90;;;1.80;;
22160;SDS011;49035;48.812;11.762;2023-07-29T11:29:47;2.78;;;1.70;;
22160;SDS011;49035;48.812;11.762;2023-07-29T11:32:13;2.50;;;2.00;;
22160;SDS011;49035;48.812;11.762;2023-07-29T11:34:40;2.60;;;1.77;;
22160;SDS011;49035;48.812;11.762;2023-07-29T11:37:06;1.95;;;1.50;;
22160;SDS011;49035;48.812;11.762;2023-07-29T11:39:32;2.72;;;1.35;;
22160;SDS011;49035;48.812;11.762;2023-07-29T11:41:58;1.83;;;1.60;;
22160;SDS011;49035;48.812;11.762;2023-07-29T11:44:27;2.28;;;1.90;;
22160;SDS011;49035;48.812;11.762;2023-07-29T11:46:53;4.22;;;2.00;;
22160;SDS011;49035;48.812;11.762;2023-07-29T11:49:19;1.92;;;1.60;;
22160;SDS011;49035;48.812;11.762;2023-07-29T11:51:44;4.32;;;1.70;;
22160;SDS011;49035;48.812;11.762;2023-07-29T11:54:11;2.00;;;1.60;;
22160;SDS011;49035;48.812;11.762;2023-07-29T11:56:37;3.33;;;1.65;;
22160;SDS011;49035;48.812;11.762;2023-07-29T11:59:03;1.95;;;1.80;;
22160;SDS011;49035;48.812;11.762;2023-07-29T12:01:29;9.88;;;2.10;;
22160;SDS011;49035;48.812;11.762;2023-07-29T12:03:55;3.10;;;1.83;;
22160;SDS011;49035;48.812;11.762;2023-07-29T12:06:23;1.92;;;1.70;;
22160;SDS011;49035;48.812;11.762;2023-07-29T12:08:50;2.63;;;1.70;;
22160;SDS011;49035;48.812;11.762;2023-07-29T12:11:16;5.18;;;2.25;;
22160;SDS011;49035;48.812;11.762;2023-07-29T12:13:43;2.22;;;1.70;;
22160;SDS011;49035;48.812;11.762;2023-07-29T12:16:09;1.85;;;1.75;;
22160;SDS011;49035;48.812;11.762;2023-07-29T12:18:35;4.70;;;2.10;;
22160;SDS011;49035;48.812;11.762;2023-07-29T12:21:01;2.72;;;1.90;;
22160;SDS011;49035;48.812;11.762;2023-07-29T12:23:28;2.97;;;1.67;;
22160;SDS011;49035;48.812;11.762;2023-07-29T12:25:58;2.10;;;1.90;;
22160;SDS011;49035;48.812;11.762;2023-07-29T12:28:24;3.25;;;1.70;;
22160;SDS011;49035;48.812;11.762;2023-07-29T12:30:54;2.20;;;1.67;;
22160;SDS011;49035;48.812;11.762;2023-07-29T12:33:34;1.90;;;1.70;;
22160;SDS011;49035;48.812;11.762;2023-07-29T12:36:02;4.18;;;2.00;;
22160;SDS011;49035;48.812;11.762;2023-07-29T12:38:28;3.35;;;2.00;;
22160;SDS011;49035;48.812;11.762;2023-07-29T12:40:54;2.22;;;1.95;;
22160;SDS011;49035;48.812;11.762;2023-07-29T12:43:20;2.17;;;1.80;;
22160;SDS011;49035;48.812;11.762;2023-07-29T12:45:46;3.60;;;1.85;;
22160;SDS011;49035;48.812;11.762;2023-07-29T12:48:14;5.93;;;1.70;;
22160;SDS011;49035;48.812;11.762;2023-07-29T12:50:40;2.00;;;1.80;;
22160;SDS011;49035;48.812;11.762;2023-07-29T12:53:06;2.45;;;2.00;;
22160;SDS011;49035;48.812;11.762;2023-07-29T12:55:32;2.28;;;1.52;;
22160;SDS011;49035;48.812;11.762;2023-07-29T12:57:58;2.97;;;1.63;;
22160;SDS011;49035;48.812;11.762;2023-07-29T13:00:24;3.00;;;1.65;;
22160;SDS011;49035;48.812;11.762;2023-07-29T13:02:50;1.90;;;1.70;;
22160;SDS011;49035;48.812;11.762;2023-07-29T13:05:16;1.88;;;1.52;;
22160;SDS011;49035;48.812;11.762;2023-07-29T13:07:42;1.98;;;1.52;;
22160;SDS011;49035;48.812;11.762;2023-07-29T13:10:08;2.00;;;1.80;;
22160;SDS011;49035;48.812;11.762;2023-07-29T13:12:37;2.10;;;1.67;;
22160;SDS011;49035;48.812;11.762;2023-07-29T13:15:03;4.40;;;1.83;;
22160;SDS011;49035;48.812;11.762;2023-07-29T13:17:29;2.05;;;1.85;;
22160;SDS011;49035;48.812;11.762;2023-07-29T13:19:55;2.60;;;1.75;;
22160;SDS011;49035;48.812;11.762;2023-07-29T13:22:21;2.55;;;1.90;;
22160;SDS011;49035;48.812;11.762;2023-07-29T13:24:46;2.35;;;2.00;;
22160;SDS011;49035;48.812;11.762;2023-07-29T13:27:12;3.03;;;2.15;;
22160;SDS011;49035;48.812;11.762;2023-07-29T13:29:38;2.58;;;2.08;;
22160;SDS011;49035;48.812;11.762;2023-07-29T13:32:05;2.83;;;2.00;;
22160;SDS011;49035;48.812;11.762;2023-07-29T13:34:31;2.78;;;2.25;;
22160;SDS011;49035;48.812;11.762;2023-07-29T13:36:57;2.50;;;1.90;;
22160;SDS011;49035;48.812;11.762;2023-07-29T13:39:22;2.42;;;2.20;;
22160;SDS011;49035;48.812;11.762;2023-07-29T13:41:48;2.70;;;1.73;;
22160;SDS011;49035;48.812;11.762;2023-07-29T13:44:14;3.08;;;1.65;;
22160;SDS011;49035;48.812;11.762;2023-07-29T13:46:39;1.80;;;1.60;;
22160;SDS011;49035;48.812;11.762;2023-07-29T13:49:05;4.10;;;1.60;;
22160;SDS011;49035;48.812;11.762;2023-07-29T13:51:30;1.95;;;1.65;;
22160;SDS011;49035;48.812;11.762;2023-07-29T13:53:56;1.80;;;1.45;;
22160;SDS011;49035;48.812;11.762;2023-07-29T13:56:22;4.13;;;2.03;;
22160;SDS011;49035;48.812;11.762;2023-07-29T13:58:47;2.22;;;1.58;;
22160;SDS011;49035;48.812;11.762;2023-07-29T14:01:13;1.65;;;1.30;;
22160;SDS011;49035;48.812;11.762;2023-07-29T14:03:39;2.58;;;1.50;;
22160;SDS011;49035;48.812;11.762;2023-07-29T14:06:04;3.97;;;1.55;;
22160;SDS011;49035;48.812;11.762;2023-07-29T14:08:30;3.67;;;1.40;;
22160;SDS011;49035;48.812;11.762;2023-07-29T14:11:00;2.00;;;1.13;;
22160;SDS011;49035;48.812;11.762;2023-07-29T14:13:25;1.80;;;1.50;;
22160;SDS011;49035;48.812;11.762;2023-07-29T14:15:51;2.05;;;1.48;;
22160;SDS011;49035;48.812;11.762;2023-07-29T14:18:17;2.90;;;1.50;;
22160;SDS011;49035;48.812;11.762;2023-07-29T14:20:42;1.95;;;1.67;;
22160;SDS011;49035;48.812;11.762;2023-07-29T14:23:08;1.58;;;1.45;;
22160;SDS011;49035;48.812;11.762;2023-07-29T14:25:33;2.85;;;1.45;;
22160;SDS011;49035;48.812;11.762;2023-07-29T14:27:59;1.33;;;1.10;;
22160;SDS011;49035;48.812;11.762;2023-07-29T14:30:25;1.98;;;1.17;;
22160;SDS011;49035;48.812;11.762;2023-07-29T14:32:50;1.17;;;1.08;;
22160;SDS011;49035;48.812;11.762;2023-07-29T14:35:16;1.70;;;1.60;;
22160;SDS011;49035;48.812;11.762;2023-07-29T14:37:41;1.60;;;1.50;;
22160;SDS011;49035;48.812;11.762;2023-07-29T14:40:07;2.22;;;1.48;;
22160;SDS011;49035;48.812;11.762;2023-07-29T14:42:33;1.55;;;1.42;;
22160;SDS011;49035;48.812;11.762;2023-07-29T14:44:58;1.50;;;1.25;;
22160;SDS011;49035;48.812;11.762;2023-07-29T14:47:24;1.42;;;1.33;;
22160;SDS011;49035;48.812;11.762;2023-07-29T14:49:50;1.60;;;1.50;;
22160;SDS011;49035;48.812;11.762;2023-07-29T14:52:15;3.05;;;1.45;;
22160;SDS011;49035;48.812;11.762;2023-07-29T14:54:41;1.90;;;1.50;;
22160;SDS011;49035;48.812;11.762;2023-07-29T14:57:07;1.80;;;1.13;;